sensor_id;sensor_type;location;lat;lon;timestamp;temperature;humidity
354;DHT22;165;53.592;10.044;2022-07-17T00:00:13;13.80;99.90
354;DHT22;165;53.592;10.044;2022-07-17T00:02:39;13.80;99.90
354;DHT22;165;53.592;10.044;2022-07-17T00:05:05;13.80;99.90
354;DHT22;165;53.592;10.044;2022-07-17T00:07:31;13.70;99.90
354;DHT22;165;53.592;10.044;2022-07-17T00:09:56;13.70;99.90
354;DHT22;165;53.592;10.044;2022-07-17T00:12:22;13.70;99.90
354;DHT22;165;53.592;10.044;2022-07-17T00:14:48;13.70;99.90
354;DHT22;165;53.592;10.044;2022-07-17T00:17:13;13.70;99.90
354;DHT22;165;53.592;10.044;2022-07-17T00:19:39;13.70;99.90
354;DHT22;165;53.592;10.044;2022-07-17T00:22:05;13.70;99.90
354;DHT22;165;53.592;10.044;2022-07-17T00:24:30;13.70;99.90
354;DHT22;165;53.592;10.044;2022-07-17T00:26:56;13.70;99.90
354;DHT22;165;53.592;10.044;2022-07-17T00:29:21;13.60;99.90
354;DHT22;165;53.592;10.044;2022-07-17T00:31:47;13.60;99.90
354;DHT22;165;53.592;10.044;2022-07-17T00:34:13;13.50;99.90
354;DHT22;165;53.592;10.044;2022-07-17T00:36:40;13.50;99.90
354;DHT22;165;53.592;10.044;2022-07-17T00:39:05;13.50;99.90
354;DHT22;165;53.592;10.044;2022-07-17T00:41:31;13.40;99.90
354;DHT22;165;53.592;10.044;2022-07-17T00:44:04;13.40;99.90
354;DHT22;165;53.592;10.044;2022-07-17T00:46:30;13.40;99.90
354;DHT22;165;53.592;10.044;2022-07-17T00:48:56;13.30;99.90
354;DHT22;165;53.592;10.044;2022-07-17T00:51:21;13.30;99.90
354;DHT22;165;53.592;10.044;2022-07-17T00:53:47;13.30;99.90
354;DHT22;165;53.592;10.044;2022-07-17T00:56:17;13.20;99.90
354;DHT22;165;53.592;10.044;2022-07-17T00:58:44;13.20;99.90
354;DHT22;165;53.592;10.044;2022-07-17T01:01:09;13.20;99.90
354;DHT22;165;53.592;10.044;2022-07-17T01:03:35;13.20;99.90
354;DHT22;165;53.592;10.044;2022-07-17T01:06:02;13.20;99.90
354;DHT22;165;53.592;10.044;2022-07-17T01:08:28;13.20;99.90
354;DHT22;165;53.592;10.044;2022-07-17T01:10:53;13.20;99.90
354;DHT22;165;53.592;10.044;2022-07-17T01:13:20;13.20;99.90
354;DHT22;165;53.592;10.044;2022-07-17T01:15:46;13.10;99.90
354;DHT22;165;53.592;10.044;2022-07-17T01:18:13;13.20;99.90
354;DHT22;165;53.592;10.044;2022-07-17T01:20:40;13.20;99.90
354;DHT22;165;53.592;10.044;2022-07-17T01:23:07;13.20;99.90
354;DHT22;165;53.592;10.044;2022-07-17T01:25:33;13.20;99.90
354;DHT22;165;53.592;10.044;2022-07-17T01:28:00;13.20;99.90
354;DHT22;165;53.592;10.044;2022-07-17T01:30:25;13.30;99.90
354;DHT22;165;53.592;10.044;2022-07-17T01:32:51;13.40;99.90
354;DHT22;165;53.592;10.044;2022-07-17T01:35:17;13.40;99.90
354;DHT22;165;53.592;10.044;2022-07-17T01:37:43;13.60;99.90
354;DHT22;165;53.592;10.044;2022-07-17T01:40:10;13.70;99.90
354;DHT22;165;53.592;10.044;2022-07-17T01:42:39;13.80;99.90
354;DHT22;165;53.592;10.044;2022-07-17T01:45:05;13.90;99.90
354;DHT22;165;53.592;10.044;2022-07-17T01:47:31;14.00;99.90
354;DHT22;165;53.592;10.044;2022-07-17T01:49:58;14.00;99.90
354;DHT22;165;53.592;10.044;2022-07-17T01:52:24;14.00;99.90
354;DHT22;165;53.592;10.044;2022-07-17T01:54:50;14.00;99.90
354;DHT22;165;53.592;10.044;2022-07-17T01:57:16;14.00;99.90
354;DHT22;165;53.592;10.044;2022-07-17T01:59:42;14.00;99.90
354;DHT22;165;53.592;10.044;2022-07-17T02:02:08;14.10;99.90
354;DHT22;165;53.592;10.044;2022-07-17T02:04:37;14.10;99.90
354;DHT22;165;53.592;10.044;2022-07-17T02:07:04;14.20;99.90
354;DHT22;165;53.592;10.044;2022-07-17T02:09:29;14.20;99.90
354;DHT22;165;53.592;10.044;2022-07-17T02:11:55;14.20;99.90
354;DHT22;165;53.592;10.044;2022-07-17T02:14:21;14.20;99.90
354;DHT22;165;53.592;10.044;2022-07-17T02:16:46;14.20;99.90
354;DHT22;165;53.592;10.044;2022-07-17T02:19:12;14.20;99.90
354;DHT22;165;53.592;10.044;2022-07-17T02:21:38;14.30;99.90
354;DHT22;165;53.592;10.044;2022-07-17T02:24:04;14.30;99.90
354;DHT22;165;53.592;10.044;2022-07-17T02:26:30;14.30;99.90
354;DHT22;165;53.592;10.044;2022-07-17T02:28:55;14.40;99.90
354;DHT22;165;53.592;10.044;2022-07-17T02:31:21;14.40;99.90
354;DHT22;165;53.592;10.044;2022-07-17T02:33:47;14.40;99.90
354;DHT22;165;53.592;10.044;2022-07-17T02:36:12;14.50;99.90
354;DHT22;165;53.592;10.044;2022-07-17T02:38:38;14.50;99.90
354;DHT22;165;53.592;10.044;2022-07-17T02:41:03;14.50;99.90
354;DHT22;165;53.592;10.044;2022-07-17T02:43:29;14.50;99.90
354;DHT22;165;53.592;10.044;2022-07-17T02:45:54;14.50;99.90
354;DHT22;165;53.592;10.044;2022-07-17T02:48:20;14.50;99.90
354;DHT22;165;53.592;10.044;2022-07-17T02:50:45;14.60;99.90
354;DHT22;165;53.592;10.044;2022-07-17T02:53:11;14.60;99.90
354;DHT22;165;53.592;10.044;2022-07-17T02:55:36;14.50;99.90
354;DHT22;165;53.592;10.044;2022-07-17T02:58:02;14.50;99.90
354;DHT22;165;53.592;10.044;2022-07-17T03:00:28;14.50;99.90
354;DHT22;165;53.592;10.044;2022-07-17T03:02:54;14.50;99.90
354;DHT22;165;53.592;10.044;2022-07-17T03:05:21;14.50;99.90
354;DHT22;165;53.592;10.044;2022-07-17T03:07:46;14.50;99.90
354;DHT22;165;53.592;10.044;2022-07-17T03:10:13;14.50;99.90
354;DHT22;165;53.592;10.044;2022-07-17T03:12:39;14.60;99.90
354;DHT22;165;53.592;10.044;2022-07-17T03:15:05;14.60;99.90
354;DHT22;165;53.592;10.044;2022-07-17T03:17:31;14.70;99.90
354;DHT22;165;53.592;10.044;2022-07-17T03:19:57;14.70;99.90
354;DHT22;165;53.592;10.044;2022-07-17T03:22:23;14.70;99.90
354;DHT22;165;53.592;10.044;2022-07-17T03:24:48;14.70;99.90
354;DHT22;165;53.592;10.044;2022-07-17T03:27:14;14.70;99.90
354;DHT22;165;53.592;10.044;2022-07-17T03:29:40;14.70;99.90
354;DHT22;165;53.592;10.044;2022-07-17T03:32:05;14.70;99.90
354;DHT22;165;53.592;10.044;2022-07-17T03:34:31;14.70;99.90
354;DHT22;165;53.592;10.044;2022-07-17T03:36:56;14.80;99.90
354;DHT22;165;53.592;10.044;2022-07-17T03:39:22;14.70;99.90
354;DHT22;165;53.592;10.044;2022-07-17T03:41:47;14.70;99.90
354;DHT22;165;53.592;10.044;2022-07-17T03:44:13;14.80;99.90
354;DHT22;165;53.592;10.044;2022-07-17T03:46:39;14.70;99.90
354;DHT22;165;53.592;10.044;2022-07-17T03:49:04;14.80;99.90
354;DHT22;165;53.592;10.044;2022-07-17T03:51:30;14.70;99.90
354;DHT22;165;53.592;10.044;2022-07-17T03:53:55;14.80;99.90
354;DHT22;165;53.592;10.044;2022-07-17T03:56:21;14.90;99.90
354;DHT22;165;53.592;10.044;2022-07-17T03:58:47;14.90;99.90
354;DHT22;165;53.592;10.044;2022-07-17T04:01:12;14.90;99.90
354;DHT22;165;53.592;10.044;2022-07-17T04:03:38;15.00;99.90
354;DHT22;165;53.592;10.044;2022-07-17T04:06:03;15.10;99.90
354;DHT22;165;53.592;10.044;2022-07-17T04:08:29;15.20;99.90
354;DHT22;165;53.592;10.044;2022-07-17T04:10:55;15.20;99.90
354;DHT22;165;53.592;10.044;2022-07-17T04:13:20;15.20;99.90
354;DHT22;165;53.592;10.044;2022-07-17T04:15:46;15.30;99.90
354;DHT22;165;53.592;10.044;2022-07-17T04:18:21;15.30;99.90
354;DHT22;165;53.592;10.044;2022-07-17T04:20:47;15.30;99.90
354;DHT22;165;53.592;10.044;2022-07-17T04:23:13;15.40;99.90
354;DHT22;165;53.592;10.044;2022-07-17T04:25:40;15.30;99.90
354;DHT22;165;53.592;10.044;2022-07-17T04:28:05;15.40;99.90
354;DHT22;165;53.592;10.044;2022-07-17T04:30:31;15.40;99.90
354;DHT22;165;53.592;10.044;2022-07-17T04:32:57;15.30;99.90
354;DHT22;165;53.592;10.044;2022-07-17T04:35:22;15.30;99.90
354;DHT22;165;53.592;10.044;2022-07-17T04:37:48;15.30;99.90
354;DHT22;165;53.592;10.044;2022-07-17T04:40:13;15.40;99.90
354;DHT22;165;53.592;10.044;2022-07-17T04:42:39;15.50;99.90
354;DHT22;165;53.592;10.044;2022-07-17T04:45:05;15.50;99.90
354;DHT22;165;53.592;10.044;2022-07-17T04:47:31;15.50;99.90
354;DHT22;165;53.592;10.044;2022-07-17T04:49:57;15.50;99.90
354;DHT22;165;53.592;10.044;2022-07-17T04:52:23;15.60;99.90
354;DHT22;165;53.592;10.044;2022-07-17T04:54:48;15.70;99.90
354;DHT22;165;53.592;10.044;2022-07-17T04:57:14;15.70;99.90
354;DHT22;165;53.592;10.044;2022-07-17T04:59:39;15.90;99.90
354;DHT22;165;53.592;10.044;2022-07-17T05:02:05;16.00;99.90
354;DHT22;165;53.592;10.044;2022-07-17T05:04:30;16.10;99.90
354;DHT22;165;53.592;10.044;2022-07-17T05:06:56;16.10;99.90
354;DHT22;165;53.592;10.044;2022-07-17T05:09:22;16.20;99.90
354;DHT22;165;53.592;10.044;2022-07-17T05:11:47;16.30;99.90
354;DHT22;165;53.592;10.044;2022-07-17T05:14:13;16.30;99.90
354;DHT22;165;53.592;10.044;2022-07-17T05:16:38;16.30;99.90
354;DHT22;165;53.592;10.044;2022-07-17T05:19:04;16.30;99.90
354;DHT22;165;53.592;10.044;2022-07-17T05:21:30;16.40;99.90
354;DHT22;165;53.592;10.044;2022-07-17T05:23:55;16.50;99.90
354;DHT22;165;53.592;10.044;2022-07-17T05:26:21;16.60;99.90
354;DHT22;165;53.592;10.044;2022-07-17T05:28:46;16.60;99.90
354;DHT22;165;53.592;10.044;2022-07-17T05:31:12;16.60;99.90
354;DHT22;165;53.592;10.044;2022-07-17T05:33:37;16.60;99.90
354;DHT22;165;53.592;10.044;2022-07-17T05:36:03;16.70;99.90
354;DHT22;165;53.592;10.044;2022-07-17T05:38:29;16.70;99.90
354;DHT22;165;53.592;10.044;2022-07-17T05:40:54;16.80;99.90
354;DHT22;165;53.592;10.044;2022-07-17T05:43:20;17.00;99.90
354;DHT22;165;53.592;10.044;2022-07-17T05:45:45;17.20;99.90
354;DHT22;165;53.592;10.044;2022-07-17T05:48:11;17.40;99.90
354;DHT22;165;53.592;10.044;2022-07-17T05:50:36;17.50;99.90
354;DHT22;165;53.592;10.044;2022-07-17T05:53:02;17.70;99.90
354;DHT22;165;53.592;10.044;2022-07-17T05:55:27;17.90;99.90
354;DHT22;165;53.592;10.044;2022-07-17T05:57:53;18.20;99.90
354;DHT22;165;53.592;10.044;2022-07-17T06:00:19;18.70;99.90
354;DHT22;165;53.592;10.044;2022-07-17T06:02:45;18.80;99.90
354;DHT22;165;53.592;10.044;2022-07-17T06:05:11;18.70;99.90
354;DHT22;165;53.592;10.044;2022-07-17T06:07:37;18.50;99.90
354;DHT22;165;53.592;10.044;2022-07-17T06:10:03;18.50;99.90
354;DHT22;165;53.592;10.044;2022-07-17T06:12:29;18.40;99.90
354;DHT22;165;53.592;10.044;2022-07-17T06:14:55;18.80;99.90
354;DHT22;165;53.592;10.044;2022-07-17T06:17:20;19.70;99.90
354;DHT22;165;53.592;10.044;2022-07-17T06:19:46;20.20;99.90
354;DHT22;165;53.592;10.044;2022-07-17T06:22:11;20.60;99.90
354;DHT22;165;53.592;10.044;2022-07-17T06:24:37;20.80;99.90
354;DHT22;165;53.592;10.044;2022-07-17T06:27:02;20.80;99.90
354;DHT22;165;53.592;10.044;2022-07-17T06:29:28;20.80;99.90
354;DHT22;165;53.592;10.044;2022-07-17T06:31:53;20.60;99.90
354;DHT22;165;53.592;10.044;2022-07-17T06:34:19;20.60;99.90
354;DHT22;165;53.592;10.044;2022-07-17T06:36:44;20.60;99.90
354;DHT22;165;53.592;10.044;2022-07-17T06:39:10;20.40;99.90
354;DHT22;165;53.592;10.044;2022-07-17T06:41:35;20.30;99.90
354;DHT22;165;53.592;10.044;2022-07-17T06:44:01;20.30;99.90
354;DHT22;165;53.592;10.044;2022-07-17T06:46:26;20.40;99.90
354;DHT22;165;53.592;10.044;2022-07-17T06:48:52;20.60;99.90
354;DHT22;165;53.592;10.044;2022-07-17T06:51:18;20.60;99.90
354;DHT22;165;53.592;10.044;2022-07-17T06:53:43;20.30;99.90
354;DHT22;165;53.592;10.044;2022-07-17T06:56:09;20.00;99.90
354;DHT22;165;53.592;10.044;2022-07-17T06:58:34;20.10;99.90
354;DHT22;165;53.592;10.044;2022-07-17T07:01:00;20.30;99.90
354;DHT22;165;53.592;10.044;2022-07-17T07:03:26;20.70;99.90
354;DHT22;165;53.592;10.044;2022-07-17T07:05:51;21.10;99.90
354;DHT22;165;53.592;10.044;2022-07-17T07:08:17;21.40;99.90
354;DHT22;165;53.592;10.044;2022-07-17T07:10:42;21.40;99.90
354;DHT22;165;53.592;10.044;2022-07-17T07:13:09;21.20;99.90
354;DHT22;165;53.592;10.044;2022-07-17T07:15:35;22.00;99.90
354;DHT22;165;53.592;10.044;2022-07-17T07:18:00;24.20;99.90
354;DHT22;165;53.592;10.044;2022-07-17T07:20:26;25.90;98.40
354;DHT22;165;53.592;10.044;2022-07-17T07:22:52;26.70;93.20
354;DHT22;165;53.592;10.044;2022-07-17T07:25:17;26.30;91.70
354;DHT22;165;53.592;10.044;2022-07-17T07:27:43;26.10;91.60
354;DHT22;165;53.592;10.044;2022-07-17T07:30:09;26.70;90.50
354;DHT22;165;53.592;10.044;2022-07-17T07:32:38;28.20;86.70
354;DHT22;165;53.592;10.044;2022-07-17T07:35:06;29.00;77.80
354;DHT22;165;53.592;10.044;2022-07-17T07:37:32;27.80;77.40
354;DHT22;165;53.592;10.044;2022-07-17T07:39:58;26.80;80.90
354;DHT22;165;53.592;10.044;2022-07-17T07:42:24;27.00;81.30
354;DHT22;165;53.592;10.044;2022-07-17T07:44:50;28.10;79.60
354;DHT22;165;53.592;10.044;2022-07-17T07:47:15;29.10;72.60
354;DHT22;165;53.592;10.044;2022-07-17T07:49:41;28.10;71.30
354;DHT22;165;53.592;10.044;2022-07-17T07:52:06;26.60;76.20
354;DHT22;165;53.592;10.044;2022-07-17T07:54:32;25.60;79.30
354;DHT22;165;53.592;10.044;2022-07-17T07:56:58;24.90;82.60
354;DHT22;165;53.592;10.044;2022-07-17T07:59:23;25.10;83.10
354;DHT22;165;53.592;10.044;2022-07-17T08:01:49;25.50;84.80
354;DHT22;165;53.592;10.044;2022-07-17T08:04:15;27.20;80.50
354;DHT22;165;53.592;10.044;2022-07-17T08:06:41;28.50;74.80
354;DHT22;165;53.592;10.044;2022-07-17T08:09:06;29.10;71.70
354;DHT22;165;53.592;10.044;2022-07-17T08:11:32;29.10;69.90
354;DHT22;165;53.592;10.044;2022-07-17T08:13:57;28.10;70.40
354;DHT22;165;53.592;10.044;2022-07-17T08:16:24;27.30;74.50
354;DHT22;165;53.592;10.044;2022-07-17T08:18:50;27.40;72.20
354;DHT22;165;53.592;10.044;2022-07-17T08:21:16;26.60;73.20
354;DHT22;165;53.592;10.044;2022-07-17T08:23:41;26.00;75.80
354;DHT22;165;53.592;10.044;2022-07-17T08:26:08;26.20;76.00
354;DHT22;165;53.592;10.044;2022-07-17T08:28:33;27.60;73.50
354;DHT22;165;53.592;10.044;2022-07-17T08:30:59;28.80;68.80
354;DHT22;165;53.592;10.044;2022-07-17T08:33:24;28.70;68.60
354;DHT22;165;53.592;10.044;2022-07-17T08:35:50;28.80;67.50
354;DHT22;165;53.592;10.044;2022-07-17T08:38:16;28.00;68.80
354;DHT22;165;53.592;10.044;2022-07-17T08:40:41;27.20;69.20
354;DHT22;165;53.592;10.044;2022-07-17T08:43:09;25.90;70.70
354;DHT22;165;53.592;10.044;2022-07-17T08:45:35;25.20;74.50
354;DHT22;165;53.592;10.044;2022-07-17T08:48:04;26.00;75.10
354;DHT22;165;53.592;10.044;2022-07-17T08:50:33;28.30;69.80
354;DHT22;165;53.592;10.044;2022-07-17T08:53:00;30.00;63.40
354;DHT22;165;53.592;10.044;2022-07-17T08:55:27;29.40;62.10
354;DHT22;165;53.592;10.044;2022-07-17T08:57:53;28.80;64.30
354;DHT22;165;53.592;10.044;2022-07-17T09:00:20;27.60;66.50
354;DHT22;165;53.592;10.044;2022-07-17T09:05:23;26.40;71.50
354;DHT22;165;53.592;10.044;2022-07-17T09:07:49;28.20;67.80
354;DHT22;165;53.592;10.044;2022-07-17T09:10:14;29.80;64.30
354;DHT22;165;53.592;10.044;2022-07-17T09:12:40;30.40;61.30
354;DHT22;165;53.592;10.044;2022-07-17T09:15:19;28.40;61.80
354;DHT22;165;53.592;10.044;2022-07-17T09:17:52;26.90;65.00
354;DHT22;165;53.592;10.044;2022-07-17T09:20:18;26.10;65.50
354;DHT22;165;53.592;10.044;2022-07-17T09:22:55;26.90;65.00
354;DHT22;165;53.592;10.044;2022-07-17T09:25:32;29.20;60.50
354;DHT22;165;53.592;10.044;2022-07-17T09:27:57;30.30;57.70
354;DHT22;165;53.592;10.044;2022-07-17T09:30:22;30.40;56.50
354;DHT22;165;53.592;10.044;2022-07-17T09:32:48;30.00;58.50
354;DHT22;165;53.592;10.044;2022-07-17T09:35:15;30.80;58.00
354;DHT22;165;53.592;10.044;2022-07-17T09:37:42;31.10;56.20
354;DHT22;165;53.592;10.044;2022-07-17T09:40:11;30.10;56.70
354;DHT22;165;53.592;10.044;2022-07-17T09:42:57;29.60;58.40
354;DHT22;165;53.592;10.044;2022-07-17T09:45:23;31.00;54.70
354;DHT22;165;53.592;10.044;2022-07-17T09:47:48;32.30;52.70
354;DHT22;165;53.592;10.044;2022-07-17T09:50:16;32.80;50.30
354;DHT22;165;53.592;10.044;2022-07-17T09:52:43;33.20;50.60
354;DHT22;165;53.592;10.044;2022-07-17T09:55:10;33.10;49.30
354;DHT22;165;53.592;10.044;2022-07-17T09:57:40;32.10;50.40
354;DHT22;165;53.592;10.044;2022-07-17T10:00:08;31.70;51.00
354;DHT22;165;53.592;10.044;2022-07-17T10:02:40;32.20;50.50
354;DHT22;165;53.592;10.044;2022-07-17T10:05:07;33.00;47.60
354;DHT22;165;53.592;10.044;2022-07-17T10:07:37;33.10;46.70
354;DHT22;165;53.592;10.044;2022-07-17T10:10:07;33.80;46.40
354;DHT22;165;53.592;10.044;2022-07-17T10:12:34;34.70;44.80
354;DHT22;165;53.592;10.044;2022-07-17T10:14:59;35.00;43.80
354;DHT22;165;53.592;10.044;2022-07-17T10:17:25;34.80;43.80
354;DHT22;165;53.592;10.044;2022-07-17T10:19:55;33.70;44.90
354;DHT22;165;53.592;10.044;2022-07-17T10:22:22;32.80;45.00
354;DHT22;165;53.592;10.044;2022-07-17T10:24:53;32.60;45.90
354;DHT22;165;53.592;10.044;2022-07-17T10:27:22;33.60;44.50
354;DHT22;165;53.592;10.044;2022-07-17T10:30:05;33.20;45.20
354;DHT22;165;53.592;10.044;2022-07-17T10:32:32;31.30;47.10
354;DHT22;165;53.592;10.044;2022-07-17T10:35:08;29.90;49.60
354;DHT22;165;53.592;10.044;2022-07-17T10:40:22;31.20;47.00
354;DHT22;165;53.592;10.044;2022-07-17T10:43:00;32.40;45.60
354;DHT22;165;53.592;10.044;2022-07-17T10:45:37;32.20;45.40
354;DHT22;165;53.592;10.044;2022-07-17T10:48:15;31.10;47.00
354;DHT22;165;53.592;10.044;2022-07-17T10:50:46;30.50;49.40
354;DHT22;165;53.592;10.044;2022-07-17T10:53:20;31.80;48.10
354;DHT22;165;53.592;10.044;2022-07-17T10:55:53;32.80;46.10
354;DHT22;165;53.592;10.044;2022-07-17T10:58:27;33.30;44.70
354;DHT22;165;53.592;10.044;2022-07-17T11:01:17;33.60;44.80
354;DHT22;165;53.592;10.044;2022-07-17T11:03:52;34.10;43.10
354;DHT22;165;53.592;10.044;2022-07-17T11:06:26;33.40;43.40
354;DHT22;165;53.592;10.044;2022-07-17T11:11:40;33.00;44.80
354;DHT22;165;53.592;10.044;2022-07-17T11:14:20;33.00;44.30
354;DHT22;165;53.592;10.044;2022-07-17T11:19:32;34.50;42.00
354;DHT22;165;53.592;10.044;2022-07-17T11:22:00;32.90;43.00
354;DHT22;165;53.592;10.044;2022-07-17T11:24:36;31.00;45.60
354;DHT22;165;53.592;10.044;2022-07-17T11:27:02;30.10;48.00
354;DHT22;165;53.592;10.044;2022-07-17T11:29:27;28.90;49.80
354;DHT22;165;53.592;10.044;2022-07-17T11:31:56;27.90;51.60
354;DHT22;165;53.592;10.044;2022-07-17T11:34:24;27.20;52.80
354;DHT22;165;53.592;10.044;2022-07-17T11:36:50;26.20;54.90
354;DHT22;165;53.592;10.044;2022-07-17T11:39:17;25.50;57.00
354;DHT22;165;53.592;10.044;2022-07-17T11:41:48;25.00;57.90
354;DHT22;165;53.592;10.044;2022-07-17T11:44:18;24.70;58.90
354;DHT22;165;53.592;10.044;2022-07-17T11:46:48;24.60;59.40
354;DHT22;165;53.592;10.044;2022-07-17T11:49:26;24.60;59.60
354;DHT22;165;53.592;10.044;2022-07-17T11:51:55;24.40;60.80
354;DHT22;165;53.592;10.044;2022-07-17T11:54:21;24.40;61.50
354;DHT22;165;53.592;10.044;2022-07-17T11:56:55;24.70;60.70
354;DHT22;165;53.592;10.044;2022-07-17T11:59:31;24.80;61.50
354;DHT22;165;53.592;10.044;2022-07-17T12:02:09;25.00;61.70
354;DHT22;165;53.592;10.044;2022-07-17T12:04:36;25.30;60.70
354;DHT22;165;53.592;10.044;2022-07-17T12:07:02;25.40;60.10
354;DHT22;165;53.592;10.044;2022-07-17T12:09:33;25.00;60.50
354;DHT22;165;53.592;10.044;2022-07-17T12:11:59;24.60;61.90
354;DHT22;165;53.592;10.044;2022-07-17T12:14:25;24.40;62.90
354;DHT22;165;53.592;10.044;2022-07-17T12:16:50;24.50;62.90
354;DHT22;165;53.592;10.044;2022-07-17T12:19:19;24.90;62.00
354;DHT22;165;53.592;10.044;2022-07-17T12:22:00;25.40;61.60
354;DHT22;165;53.592;10.044;2022-07-17T12:24:29;25.30;60.80
354;DHT22;165;53.592;10.044;2022-07-17T12:26:55;25.30;61.50
354;DHT22;165;53.592;10.044;2022-07-17T12:29:22;25.20;60.60
354;DHT22;165;53.592;10.044;2022-07-17T12:31:48;25.10;60.40
354;DHT22;165;53.592;10.044;2022-07-17T12:34:14;25.30;61.40
354;DHT22;165;53.592;10.044;2022-07-17T12:36:39;25.20;60.00
354;DHT22;165;53.592;10.044;2022-07-17T12:39:05;25.30;61.40
354;DHT22;165;53.592;10.044;2022-07-17T12:41:31;25.20;62.20
354;DHT22;165;53.592;10.044;2022-07-17T12:43:56;25.10;63.20
354;DHT22;165;53.592;10.044;2022-07-17T12:46:22;24.90;63.50
354;DHT22;165;53.592;10.044;2022-07-17T12:48:48;24.70;63.40
354;DHT22;165;53.592;10.044;2022-07-17T12:51:13;24.60;64.10
354;DHT22;165;53.592;10.044;2022-07-17T12:53:43;24.40;64.20
354;DHT22;165;53.592;10.044;2022-07-17T12:56:09;24.40;64.40
354;DHT22;165;53.592;10.044;2022-07-17T12:58:35;24.50;63.40
354;DHT22;165;53.592;10.044;2022-07-17T13:01:01;24.40;64.60
354;DHT22;165;53.592;10.044;2022-07-17T13:03:27;24.00;65.40
354;DHT22;165;53.592;10.044;2022-07-17T13:05:53;23.80;66.80
354;DHT22;165;53.592;10.044;2022-07-17T13:08:18;23.60;67.90
354;DHT22;165;53.592;10.044;2022-07-17T13:10:44;23.70;66.80
354;DHT22;165;53.592;10.044;2022-07-17T13:13:09;23.60;63.50
354;DHT22;165;53.592;10.044;2022-07-17T13:15:35;23.70;64.80
354;DHT22;165;53.592;10.044;2022-07-17T13:18:01;23.80;65.30
354;DHT22;165;53.592;10.044;2022-07-17T13:20:28;23.90;64.80
354;DHT22;165;53.592;10.044;2022-07-17T13:22:53;23.80;63.50
354;DHT22;165;53.592;10.044;2022-07-17T13:25:19;23.70;65.90
354;DHT22;165;53.592;10.044;2022-07-17T13:27:44;23.50;67.20
354;DHT22;165;53.592;10.044;2022-07-17T13:30:10;23.40;66.90
354;DHT22;165;53.592;10.044;2022-07-17T13:32:36;23.50;67.50
354;DHT22;165;53.592;10.044;2022-07-17T13:35:02;23.70;66.60
354;DHT22;165;53.592;10.044;2022-07-17T13:37:28;23.40;66.20
354;DHT22;165;53.592;10.044;2022-07-17T13:39:53;23.30;66.30
354;DHT22;165;53.592;10.044;2022-07-17T13:42:19;23.30;66.90
354;DHT22;165;53.592;10.044;2022-07-17T13:44:44;23.20;66.10
354;DHT22;165;53.592;10.044;2022-07-17T13:47:10;23.10;64.40
354;DHT22;165;53.592;10.044;2022-07-17T13:49:36;23.10;65.00
354;DHT22;165;53.592;10.044;2022-07-17T13:52:01;23.10;66.20
354;DHT22;165;53.592;10.044;2022-07-17T13:54:27;23.20;66.40
354;DHT22;165;53.592;10.044;2022-07-17T13:56:52;23.10;65.40
354;DHT22;165;53.592;10.044;2022-07-17T13:59:18;23.20;65.50
354;DHT22;165;53.592;10.044;2022-07-17T14:01:44;23.30;65.70
354;DHT22;165;53.592;10.044;2022-07-17T14:04:10;23.30;65.80
354;DHT22;165;53.592;10.044;2022-07-17T14:06:35;23.20;65.10
354;DHT22;165;53.592;10.044;2022-07-17T14:09:01;23.30;64.70
354;DHT22;165;53.592;10.044;2022-07-17T14:11:26;23.30;64.90
354;DHT22;165;53.592;10.044;2022-07-17T14:13:52;23.40;65.30
354;DHT22;165;53.592;10.044;2022-07-17T14:16:17;23.40;64.80
354;DHT22;165;53.592;10.044;2022-07-17T14:18:43;23.40;65.70
354;DHT22;165;53.592;10.044;2022-07-17T14:21:25;23.40;66.20
354;DHT22;165;53.592;10.044;2022-07-17T14:23:51;23.50;67.00
354;DHT22;165;53.592;10.044;2022-07-17T14:26:16;23.60;66.20
354;DHT22;165;53.592;10.044;2022-07-17T14:28:42;23.70;66.20
354;DHT22;165;53.592;10.044;2022-07-17T14:31:07;23.90;65.80
354;DHT22;165;53.592;10.044;2022-07-17T14:33:33;23.90;65.50
354;DHT22;165;53.592;10.044;2022-07-17T14:35:58;24.00;66.00
354;DHT22;165;53.592;10.044;2022-07-17T14:38:24;23.90;66.00
354;DHT22;165;53.592;10.044;2022-07-17T14:40:50;24.00;66.60
354;DHT22;165;53.592;10.044;2022-07-17T14:43:15;24.00;67.40
354;DHT22;165;53.592;10.044;2022-07-17T14:45:41;24.00;67.70
354;DHT22;165;53.592;10.044;2022-07-17T14:48:06;23.90;67.90
354;DHT22;165;53.592;10.044;2022-07-17T14:50:32;23.70;68.20
354;DHT22;165;53.592;10.044;2022-07-17T14:52:57;23.60;68.90
354;DHT22;165;53.592;10.044;2022-07-17T14:55:23;23.60;69.60
354;DHT22;165;53.592;10.044;2022-07-17T14:57:48;23.40;70.20
354;DHT22;165;53.592;10.044;2022-07-17T15:00:14;23.30;70.60
354;DHT22;165;53.592;10.044;2022-07-17T15:02:40;23.30;70.60
354;DHT22;165;53.592;10.044;2022-07-17T15:05:07;23.30;71.60
354;DHT22;165;53.592;10.044;2022-07-17T15:07:33;23.20;70.00
354;DHT22;165;53.592;10.044;2022-07-17T15:09:58;23.10;70.20
354;DHT22;165;53.592;10.044;2022-07-17T15:12:24;23.10;70.00
354;DHT22;165;53.592;10.044;2022-07-17T15:14:50;23.10;69.20
354;DHT22;165;53.592;10.044;2022-07-17T15:17:16;23.10;68.50
354;DHT22;165;53.592;10.044;2022-07-17T15:19:41;22.90;70.20
354;DHT22;165;53.592;10.044;2022-07-17T15:22:07;22.80;71.40
354;DHT22;165;53.592;10.044;2022-07-17T15:24:32;22.90;71.60
354;DHT22;165;53.592;10.044;2022-07-17T15:26:58;23.00;71.90
354;DHT22;165;53.592;10.044;2022-07-17T15:29:23;23.00;71.30
354;DHT22;165;53.592;10.044;2022-07-17T15:31:49;22.90;72.00
354;DHT22;165;53.592;10.044;2022-07-17T15:34:14;22.90;72.40
354;DHT22;165;53.592;10.044;2022-07-17T15:36:40;22.90;73.10
354;DHT22;165;53.592;10.044;2022-07-17T15:39:06;23.00;72.50
354;DHT22;165;53.592;10.044;2022-07-17T15:41:31;23.00;72.20
354;DHT22;165;53.592;10.044;2022-07-17T15:43:57;23.00;72.00
354;DHT22;165;53.592;10.044;2022-07-17T15:46:22;22.90;72.20
354;DHT22;165;53.592;10.044;2022-07-17T15:48:48;23.00;72.50
354;DHT22;165;53.592;10.044;2022-07-17T15:51:14;23.10;72.60
354;DHT22;165;53.592;10.044;2022-07-17T15:53:40;23.10;71.70
354;DHT22;165;53.592;10.044;2022-07-17T15:56:06;22.90;71.40
354;DHT22;165;53.592;10.044;2022-07-17T15:58:31;22.80;70.80
354;DHT22;165;53.592;10.044;2022-07-17T16:00:57;22.70;72.80
354;DHT22;165;53.592;10.044;2022-07-17T16:03:23;22.70;73.30
354;DHT22;165;53.592;10.044;2022-07-17T16:05:48;22.60;73.60
354;DHT22;165;53.592;10.044;2022-07-17T16:08:14;22.60;73.90
354;DHT22;165;53.592;10.044;2022-07-17T16:10:39;22.50;73.80
354;DHT22;165;53.592;10.044;2022-07-17T16:13:05;22.40;74.40
354;DHT22;165;53.592;10.044;2022-07-17T16:15:30;22.40;75.80
354;DHT22;165;53.592;10.044;2022-07-17T16:17:56;22.40;75.60
354;DHT22;165;53.592;10.044;2022-07-17T16:20:21;22.40;75.40
354;DHT22;165;53.592;10.044;2022-07-17T16:22:47;22.40;75.40